Flight Track Log - Related Links

Times and Time Zones

All times are in EDT time to prevent confusion due to time zone crossing. See the N762NC flight status page for this flight to view local times or setup timezone preferences in your user account.

Time Position Orientation Groundspeed Altitude Reporting Facility
EDT Latitude Longitude Course Direction KTS MPH feet Rate Location/Type
Tue 01:04:22 PM 42.2081 -83.3675 270° West 150 173 1,500  Level Cleveland Center
Tue 01:05:11 PM 42.1778 -83.4081 225° Southwest 214 246 2,900 2,155 Climbing Cleveland Center
Tue 01:06:05 PM 42.1422 -83.4594 227° Southwest 225 259 5,200 2,029 Climbing Cleveland Center
Tue 01:06:19 PM 42.1397 -83.4625 222° Southwest 209 241 5,200 2,262 Level Cleveland Center
Tue 01:07:06 PM 42.1603 -83.5494 288° West 283 326 7,500 2,323 Climbing Cleveland Center
Tue 01:07:21 PM 42.1631 -83.5519 326° Northwest 263 303 7,600 1,558 Climbing Cleveland Center
Tue 01:08:23 PM 42.2083 -83.6381 305° West 277 319 9,500 1,548 Climbing Cleveland Center
Tue 01:09:00 PM 42.1887 -84.0553 270° West  Level Estimated
Tue 01:09:25 PM 42.2719 -83.7586 306° West 329 379 10,800  Level Cleveland Center
Tue 01:10:27 PM 42.3303 -83.8706 305° West 359 413 13,200 2,274 Climbing Cleveland Center
Tue 01:11:29 PM 42.3978 -83.9808 310° West 377 434 15,500 2,177 Climbing Cleveland Center
Tue 01:12:31 PM 42.4239 -84.1172 285° West 375 432 17,700 1,984 Climbing Cleveland Center
Tue 01:13:33 PM 42.4306 -84.2608 274° West 383 441 19,600 1,645 Climbing Cleveland Center
Tue 01:14:35 PM 42.4456 -84.4081 278° West 393 452 21,100 1,645 Climbing Cleveland Center
Tue 01:15:37 PM 42.4450 -84.5872 270° West 401 461 23,000 1,935 Climbing Cleveland Center
Tue 01:16:39 PM 42.4294 -84.7244 261° West 407 468 25,100 1,452 Climbing Cleveland Center
Tue 01:17:41 PM 42.4242 -84.8650 267° West 378 435 26,000 435 Climbing Cleveland Center
Tue 01:18:43 PM 42.4367 -84.9922 278° West 348 400 26,000  Level Cleveland Center
Tue 01:19:45 PM 42.4522 -85.1489 278° West 351 404 26,000 -48 Level Cleveland Center
Tue 01:20:47 PM 42.4828 -85.2750 288° West 359 413 25,900  Descending Cleveland Center
Tue 01:21:49 PM 42.5336 -85.3928 300° West 366 421 26,000 48 Climbing Cleveland Center
Tue 01:22:51 PM 42.5983 -85.5006 309° West 369 425 26,000  Level Cleveland Center
Tue 01:23:53 PM 42.6600 -85.6089 308° West 364 419 26,000  Level Cleveland Center
Tue 01:24:55 PM 42.7261 -85.7111 311° West 361 415 26,000  Level Cleveland Center
Tue 01:25:57 PM 42.8014 -85.8364 309° West 358 412 26,000 -532 Level Cleveland Center
Tue 01:26:59 PM 42.8161 -85.9478 280° West 331 381 24,900 -1,258 Descending Cleveland Center
Tue 01:28:01 PM 42.7492 -86.0228 219° Southwest 312 359 23,400 -1,403 Descending Cleveland Center
Tue 01:29:03 PM 42.7044 -86.1219 238° Southwest 311 358 22,000 -1,355 Descending Cleveland Center
Tue 01:30:05 PM 42.6717 -86.2267 247° West 305 351 20,600 -1,622 Descending Cleveland Center
Tue 01:31:31 PM 42.6406 -86.3750 254° West 289 333 18,000 -1,812 Descending Chicago Center
Tue 01:32:34 PM 42.6192 -86.4797 255° West 286 329 16,100 -2,064 Descending Chicago Center
Tue 01:33:36 PM 42.5939 -86.6006 254° West 278 320 13,700 -1,839 Descending Chicago Center
Tue 01:34:38 PM 42.5692 -86.6972 251° West 272 313 12,300 -1,452 Descending Chicago Center
Tue 01:35:40 PM 42.5439 -86.7903 250° West 266 306 10,700 -1,113 Descending Chicago Center
Tue 01:36:42 PM 42.5125 -86.8764 244° Southwest 257 296 10,000 -339 Descending Chicago Center
Tue 01:37:44 PM 42.4886 -86.9667 250° West 255 293 10,000  Level Chicago Center
Tue 01:38:46 PM 42.4639 -87.0556 249° West 252 290 10,000 -629 Level Chicago Center
Tue 01:39:48 PM 42.4378 -87.1650 252° West 253 291 8,700 -1,258 Descending Chicago Center
Tue 01:40:50 PM 42.4175 -87.2533 253° West 248 285 7,400 -774 Descending Chicago Center
Tue 01:41:52 PM 42.3961 -87.3453 253° West 254 292 7,100 -194 Descending Chicago Center
Tue 01:42:54 PM 42.3764 -87.4336 253° West 254 292 7,000  Descending Chicago Center
Tue 01:43:56 PM 42.3514 -87.5078 246° West 218 251 7,100 48 Climbing Chicago Center
Tue 01:44:58 PM 42.3058 -87.5569 219° Southwest 185 213 7,100  Level Chicago Center
Tue 01:46:00 PM 42.2722 -87.5922 218° Southwest 158 182 7,100 -48 Level Chicago Center
Tue 01:47:03 PM 42.2414 -87.6289 221° Southwest 150 173 7,000 -435 Descending Chicago Center
Tue 01:48:04 PM 42.2075 -87.6642 218° Southwest 153 176 6,200 -878 Descending Chicago Center
Tue 01:49:06 PM 42.1692 -87.7078 220° Southwest 150 173 5,200 -871 Descending Chicago Center
Tue 01:50:08 PM 42.1381 -87.7394 217° Southwest 142 163 4,400 -866 Descending Chicago Center
Tue 01:50:43 PM 42.1167 -87.7667 223° Southwest 140 161 3,800 -832 Descending Chicago TRACON
Tue 01:51:49 PM 42.0833 -87.8000 217° Southwest 136 157 3,000 -750 Descending Chicago TRACON
Tue 01:52:43 PM 42.0667 -87.8167 217° Southwest 143 165 2,300 -789 Descending Chicago TRACON
Tue 01:53:43 PM 42.0333 -87.8500 217° Southwest 123 142 1,500 -700 Descending Chicago TRACON
Tue 01:54:43 PM 42.0000 -87.8833 217° Southwest 124 143 900 -600 Descending Chicago TRACON

Login

Don't have an account? Register now (free) for customized features, flight alerts, and more!